Date,TemperatureHighF,TemperatureAvgF,TemperatureLowF,DewpointHighF,DewpointAvgF,DewpointLowF,HumidityHigh,HumidityAvg,HumidityLow,PressureMaxIn,PressureMinIn,WindSpeedMaxMPH,WindSpeedAvgMPH,GustSpeedMaxMPH,PrecipitationSumIn
2013-5-1,72.3,55.1,38.2,41.2,35.8,31.9,87,52,29,30.40,30.30,7,0,13,0.00
2013-5-2,79.0,55.4,41.7,47.6,40.7,36.0,88,62,27,30.42,30.27,9,1,17,0.00
2013-5-3,62.0,50.7,40.5,44.8,41.3,36.8,92,72,52,30.47,30.31,11,2,13,0.00
2013-5-4,63.5,50.0,39.0,46.8,38.5,27.2,98,69,29,30.31,30.22,9,2,16,0.00
2013-5-5,64.1,48.6,35.1,44.4,38.8,33.7,98,72,45,30.31,30.19,10,2,17,0.00
2013-5-6,71.4,51.8,35.6,49.2,43.3,34.2,99,76,39,30.25,30.08,8,1,13,0.00
2013-5-7,78.1,61.9,45.0,58.2,51.7,43.9,99,73,42,30.12,30.00,8,2,15,0.00
2013-5-8,74.8,62.6,53.4,62.9,57.8,51.6,97,85,62,30.13,29.96,10,2,22,0.02
2013-5-9,66.0,59.6,56.9,63.7,58.5,56.3,100,97,86,29.97,29.80,4,1,9,0.44
2013-5-10,79.2,64.3,54.3,62.6,57.6,54.3,100,81,49,29.89,29.80,7,2,11,0.01
2013-5-11,69.3,63.5,58.7,62.3,59.2,54.5,98,86,76,29.82,29.61,9,3,20,0.15
2013-5-12,70.1,60.2,47.6,61.0,53.1,34.8,99,80,49,29.73,29.47,13,2,19,0.10
2013-5-13,59.8,49.0,39.5,37.2,33.7,29.7,82,57,39,29.97,29.73,9,2,14,0.00
2013-5-14,60.4,49.0,37.7,38.2,34.4,31.2,86,59,38,30.01,29.91,9,2,16,0.00
2013-5-15,67.1,51.7,35.9,51.4,40.2,32.7,91,68,34,30.01,29.61,16,2,22,0.00
2013-5-16,79.8,64.6,48.6,50.0,44.5,35.4,95,56,26,29.73,29.55,11,2,20,0.00
2013-5-17,69.4,58.9,49.6,46.7,42.2,37.9,77,55,38,30.15,29.74,12,2,17,0.00
2013-5-18,73.9,57.6,43.5,49.2,44.6,41.0,92,66,33,30.26,30.15,7,0,11,0.00
2013-5-19,71.2,56.9,49.2,55.6,51.0,46.6,97,82,50,30.30,30.16,11,0,16,0.15
2013-5-20,79.7,66.7,55.5,66.1,61.0,54.9,100,84,61,30.15,29.82,8,1,12,0.05
2013-5-21,78.7,60.5,50.9,68.3,57.3,49.7,98,90,67,29.95,29.79,9,2,15,0.00
2013-5-22,66.4,55.7,49.9,62.0,54.3,49.6,100,95,83,30.00,29.80,6,2,12,0.53
2013-5-23,74.1,62.4,53.2,70.9,60.7,53.1,100,95,83,29.86,29.72,13,2,22,0.19
2013-5-24,70.2,62.3,49.1,67.6,60.8,48.7,100,95,83,29.75,29.57,10,2,19,0.38
2013-5-25,51.0,47.3,41.1,51.0,47.2,40.6,100,100,98,29.75,29.64,14,4,16,0.49
2013-5-26,56.6,47.8,39.6,46.6,41.9,39.3,100,82,61,30.02,29.65,12,3,20,0.08
2013-5-27,71.3,55.8,39.4,46.7,41.9,38.0,98,65,32,30.11,29.99,10,1,14,0.00
2013-5-28,73.8,58.9,43.7,51.5,46.8,41.8,96,68,37,30.19,30.08,4,0,11,0.00
2013-5-29,67.7,61.8,56.0,64.6,59.7,50.9,100,93,83,30.11,29.90,4,0,9,0.60
2013-5-30,85.3,72.1,61.1,70.7,65.2,61.1,100,81,55,30.00,29.90,6,1,12,0.02
2013-5-31,92.1,78.3,63.1,71.2,65.8,61.3,97,69,42,30.00,29.81,6,1,13,0.00